Quail, Texas
Current Conditions -  °F | °C
As of 9:53 AM on Friday 24 Oct 2014 (Local Time) from KCDS Reporting Station
Clear Clear  
Wind Chill: 65°   Ceiling: Unl
Heat Index: 65°   Visibility: 10mi
Dew Point: 60°   Wind: 8mph
Humidity: 84%   Direction: 250°WSW
Pressure: 30.13"   Gusts: NA
Location:  34.91°N, 100.4°W
Report Text: KCDS 241453Z AUTO 25007KT 10SM CLR 18/16 A3013 RMK AO2 SLP187 T01830156 53014
Loading
Personal Weather Stations






























Interactive Weather Map
Tropical Storm Tracking
New forecast layout! Learn more

10-Day Weather Forecast

Advertisements
Track Severe Weather on mobile